Wetterdaten: Woche 03.03.14 - 09.03.14 (KW10)
Datum Zeit Temp. Aussen +5cm Feuchte Auss Luftdruck Regen Sonnenschein Regendauer UV Solar Windben
03.03.2014 00:00 3,4 C 1,9 C 83 % 994,1 hPa 0,0 l/m 0,00 h 0,00 h 0,0 UV-I 0 W/m 13,7 km/h (3 Bft)
03.03.2014 01:00 3,3 C 2,0 C 84 % 992,8 hPa 0,0 l/m 0,00 h 0,00 h 0,0 UV-I 0 W/m 14,5 km/h (3 Bft)
03.03.2014 02:00 3,8 C 2,5 C 85 % 991,6 hPa 0,0 l/m 0,00 h 0,00 h 0,0 UV-I 0 W/m 23,1 km/h (4 Bft)
03.03.2014 03:00 4,0 C 2,8 C 84 % 990,7 hPa 0,0 l/m 0,00 h 0,00 h 0,0 UV-I 0 W/m 26,2 km/h (4 Bft)
03.03.2014 04:00 3,9 C 2,5 C 85 % 989,6 hPa 0,0 l/m 0,00 h 0,00 h 0,0 UV-I 0 W/m 25,2 km/h (4 Bft)
03.03.2014 05:00 3,7 C 2,2 C 86 % 988,9 hPa 0,0 l/m 0,00 h 0,00 h 0,0 UV-I 0 W/m 25,1 km/h (4 Bft)
03.03.2014 06:00 3,9 C 2,5 C 87 % 988,4 hPa 0,0 l/m 0,00 h 0,00 h 0,0 UV-I 0 W/m 20,3 km/h (4 Bft)
03.03.2014 07:00 4,2 C 2,9 C 87 % 987,9 hPa 0,0 l/m 0,00 h 0,00 h 0,0 UV-I 12 W/m 23,0 km/h (4 Bft)
03.03.2014 08:00 4,6 C 3,5 C 86 % 988,2 hPa 0,2 l/m 0,00 h 0,27 h 0,0 UV-I 34 W/m 21,4 km/h (4 Bft)
03.03.2014 09:00 5,0 C 3,5 C 88 % 988,4 hPa 0,0 l/m 0,00 h 0,27 h 0,0 UV-I 54 W/m 15,2 km/h (3 Bft)
03.03.2014 10:00 6,1 C 4,9 C 83 % 988,7 hPa 0,0 l/m 0,00 h 0,30 h 0,0 UV-I 95 W/m 21,9 km/h (4 Bft)
03.03.2014 11:00 6,7 C 5,9 C 83 % 989,1 hPa 0,0 l/m 0,00 h 0,00 h 0,0 UV-I 95 W/m 15,9 km/h (3 Bft)
03.03.2014 12:00 7,2 C 5,9 C 84 % 989,5 hPa 0,0 l/m 0,00 h 0,17 h 0,0 UV-I 62 W/m 8,2 km/h (2 Bft)
03.03.2014 13:00 7,4 C 6,5 C 83 % 989,8 hPa 0,0 l/m 0,00 h 0,13 h 0,0 UV-I 116 W/m 12,9 km/h (3 Bft)
03.03.2014 14:00 7,8 C 7,0 C 81 % 990,4 hPa 0,0 l/m 0,17 h 0,00 h 0,7 UV-I 161 W/m 12,2 km/h (2 Bft)
03.03.2014 15:00 8,7 C 7,5 C 73 % 990,9 hPa 0,0 l/m 0,40 h 0,00 h 0,0 UV-I 199 W/m 12,9 km/h (3 Bft)
03.03.2014 16:00 8,9 C 7,2 C 71 % 991,1 hPa 0,0 l/m 0,17 h 0,00 h 0,0 UV-I 102 W/m 3,7 km/h (1 Bft)
03.03.2014 17:00 9,5 C 7,6 C 65 % 991,7 hPa 0,0 l/m 0,70 h 0,00 h 0,0 UV-I 67 W/m 5,4 km/h (1 Bft)
03.03.2014 18:00 8,3 C 5,8 C 67 % 992,6 hPa 0,0 l/m 0,13 h 0,00 h 0,0 UV-I 13 W/m 1,5 km/h (1 Bft)
03.03.2014 19:00 7,5 C 5,0 C 72 % 993,3 hPa 0,0 l/m 0,00 h 0,00 h 0,0 UV-I 0 W/m 0,1 km/h (0 Bft)
03.03.2014 20:00 6,8 C 4,4 C 75 % 993,9 hPa 0,0 l/m 0,00 h 0,00 h 0,0 UV-I 0 W/m 5,5 km/h (1 Bft)
03.03.2014 21:00 5,9 C 3,7 C 78 % 994,5 hPa 0,0 l/m 0,00 h 0,00 h 0,0 UV-I 0 W/m 3,6 km/h (1 Bft)
03.03.2014 22:00 5,0 C 2,5 C 80 % 995,0 hPa 0,0 l/m 0,00 h 0,00 h 0,0 UV-I 0 W/m 1,9 km/h (1 Bft)
03.03.2014 23:00 4,6 C 2,7 C 81 % 995,4 hPa 0,0 l/m 0,00 h 0,00 h 0,0 UV-I 0 W/m 8,1 km/h (2 Bft)
04.03.2014 00:00 4,0 C 2,3 C 84 % 995,9 hPa 0,0 l/m 0,00 h 0,00 h 0,0 UV-I 0 W/m 5,8 km/h (2 Bft)
04.03.2014 01:00 3,0 C 1,3 C 89 % 996,6 hPa 0,0 l/m 0,00 h 0,00 h 0,0 UV-I 0 W/m 1,4 km/h (1 Bft)
04.03.2014 02:00 2,6 C 1,1 C 91 % 997,1 hPa 0,0 l/m 0,00 h 0,00 h 0,0 UV-I 0 W/m 2,5 km/h (1 Bft)
04.03.2014 03:00 2,3 C 0,7 C 91 % 997,6 hPa 0,0 l/m 0,00 h 0,00 h 0,0 UV-I 0 W/m 2,4 km/h (1 Bft)
04.03.2014 04:00 1,8 C 0,1 C 92 % 998,3 hPa 0,0 l/m 0,00 h 0,00 h 0,0 UV-I 0 W/m 0,1 km/h (0 Bft)
04.03.2014 05:00 1,7 C 0,0 C 93 % 999,3 hPa 0,0 l/m 0,00 h 0,00 h 0,0 UV-I 0 W/m 1,3 km/h (1 Bft)
04.03.2014 06:00 1,4 C -0,3 C 93 % 999,9 hPa 0,0 l/m 0,00 h 0,00 h 0,0 UV-I 0 W/m 0,4 km/h (0 Bft)
04.03.2014 07:00 1,3 C -0,1 C 94 % 1000,6 hPa 0,0 l/m 0,17 h 0,00 h 0,0 UV-I 27 W/m 1,7 km/h (1 Bft)
04.03.2014 08:00 2,4 C 1,4 C 93 % 1001,4 hPa 0,0 l/m 0,73 h 0,00 h 0,0 UV-I 135 W/m 5,7 km/h (1 Bft)
04.03.2014 09:00 5,9 C 4,2 C 84 % 1001,9 hPa 0,0 l/m 1,00 h 0,00 h 0,0 UV-I 282 W/m 3,0 km/h (1 Bft)
04.03.2014 10:00 8,5 C 7,0 C 76 % 1002,4 hPa 0,0 l/m 1,00 h 0,00 h 0,5 UV-I 367 W/m 1,4 km/h (1 Bft)
04.03.2014 11:00 9,7 C 8,7 C 74 % 1002,8 hPa 0,0 l/m 0,97 h 0,00 h 0,6 UV-I 420 W/m 3,8 km/h (1 Bft)
04.03.2014 12:00 10,6 C 9,5 C 72 % 1003,1 hPa 0,0 l/m 0,83 h 0,00 h 0,7 UV-I 430 W/m 6,8 km/h (2 Bft)
04.03.2014 13:00 11,2 C 10,4 C 69 % 1003,2 hPa 0,0 l/m 0,63 h 0,00 h 0,8 UV-I 415 W/m 8,1 km/h (2 Bft)
04.03.2014 14:00 11,7 C 10,4 C 63 % 1003,4 hPa 0,0 l/m 0,83 h 0,00 h 0,6 UV-I 400 W/m 10,7 km/h (2 Bft)
04.03.2014 15:00 11,1 C 9,7 C 65 % 1003,8 hPa 0,0 l/m 0,30 h 0,00 h 0,0 UV-I 226 W/m 9,2 km/h (2 Bft)
04.03.2014 16:00 10,7 C 9,6 C 66 % 1004,3 hPa 0,0 l/m 0,10 h 0,00 h 0,0 UV-I 115 W/m 5,9 km/h (2 Bft)
04.03.2014 17:00 10,2 C 8,8 C 66 % 1005,1 hPa 0,0 l/m 0,40 h 0,00 h 0,0 UV-I 63 W/m 4,5 km/h (1 Bft)
04.03.2014 18:00 8,8 C 6,7 C 72 % 1005,9 hPa 0,0 l/m 0,00 h 0,00 h 0,0 UV-I 8 W/m 0,2 km/h (0 Bft)
04.03.2014 19:00 7,9 C 5,5 C 77 % 1006,8 hPa 0,0 l/m 0,00 h 0,00 h 0,0 UV-I 0 W/m 0,2 km/h (0 Bft)
04.03.2014 20:00 6,2 C 3,6 C 82 % 1007,6 hPa 0,0 l/m 0,00 h 0,00 h 0,0 UV-I 0 W/m 0,7 km/h (0 Bft)
04.03.2014 21:00 5,7 C 3,1 C 84 % 1008,2 hPa 0,0 l/m 0,00 h 0,00 h 0,0 UV-I 0 W/m 0,3 km/h (0 Bft)
04.03.2014 22:00 4,5 C 2,2 C 86 % 1008,8 hPa 0,0 l/m 0,00 h 0,00 h 0,0 UV-I 0 W/m 0,0 km/h (0 Bft)
04.03.2014 23:00 3,5 C 1,6 C 90 % 1009,5 hPa 0,0 l/m 0,00 h 0,00 h 0,0 UV-I 0 W/m 0,0 km/h (0 Bft)
05.03.2014 00:00 4,0 C 2,1 C 91 % 1010,4 hPa 0,0 l/m 0,00 h 0,00 h 0,0 UV-I 0 W/m 0,0 km/h (0 Bft)
05.03.2014 01:00 3,2 C 1,1 C 93 % 1011,0 hPa 0,0 l/m 0,00 h 0,00 h 0,0 UV-I 0 W/m 0,0 km/h (0 Bft)
05.03.2014 02:00 3,1 C 1,3 C 95 % 1011,5 hPa 0,0 l/m 0,00 h 0,00 h 0,0 UV-I 0 W/m 0,0 km/h (0 Bft)
05.03.2014 03:00 3,5 C 1,9 C 96 % 1012,2 hPa 0,0 l/m 0,00 h 0,00 h 0,0 UV-I 0 W/m 0,2 km/h (0 Bft)
05.03.2014 04:00 2,3 C 0,4 C 96 % 1012,8 hPa 0,0 l/m 0,00 h 0,00 h 0,0 UV-I 0 W/m 0,0 km/h (0 Bft)
05.03.2014 05:00 2,5 C 1,2 C 97 % 1013,9 hPa 0,0 l/m 0,00 h 0,00 h 0,0 UV-I 0 W/m 0,0 km/h (0 Bft)
05.03.2014 06:00 3,3 C 2,4 C 98 % 1014,8 hPa 0,0 l/m 0,00 h 0,00 h 0,0 UV-I 0 W/m 0,0 km/h (0 Bft)
05.03.2014 07:00 2,5 C 1,8 C 98 % 1016,0 hPa 0,0 l/m 0,00 h 0,00 h 0,0 UV-I 12 W/m 0,1 km/h (0 Bft)
05.03.2014 08:00 2,6 C 2,3 C 98 % 1017,0 hPa 0,0 l/m 0,00 h 0,00 h 0,0 UV-I 39 W/m 0,2 km/h (0 Bft)
05.03.2014 09:00 3,5 C 3,5 C 98 % 1018,0 hPa 0,0 l/m 0,00 h 0,00 h 0,0 UV-I 102 W/m 0,1 km/h (0 Bft)
05.03.2014 10:00 4,3 C 4,7 C 98 % 1018,8 hPa 0,0 l/m 0,00 h 0,00 h 0,0 UV-I 147 W/m 0,6 km/h (0 Bft)
05.03.2014 11:00 5,2 C 5,9 C 96 % 1019,4 hPa 0,0 l/m 0,20 h 0,00 h 0,5 UV-I 255 W/m 2,3 km/h (1 Bft)
05.03.2014 12:00 6,5 C 6,8 C 92 % 1020,0 hPa 0,0 l/m 0,60 h 0,00 h 0,7 UV-I 344 W/m 5,8 km/h (2 Bft)
05.03.2014 13:00 7,9 C 7,6 C 88 % 1020,3 hPa 0,0 l/m 0,80 h 0,00 h 1,0 UV-I 443 W/m 7,1 km/h (2 Bft)
05.03.2014 14:00 9,3 C 8,7 C 83 % 1020,8 hPa 0,0 l/m 0,83 h 0,00 h 0,7 UV-I 388 W/m 6,5 km/h (2 Bft)
05.03.2014 15:00 9,6 C 8,6 C 79 % 1021,2 hPa 0,0 l/m 0,93 h 0,00 h 0,5 UV-I 324 W/m 7,2 km/h (2 Bft)
05.03.2014 16:00 9,6 C 8,2 C 77 % 1021,7 hPa 0,0 l/m 0,90 h 0,00 h 0,0 UV-I 201 W/m 2,4 km/h (1 Bft)
05.03.2014 17:00 8,8 C 6,6 C 79 % 1022,5 hPa 0,0 l/m 0,33 h 0,00 h 0,0 UV-I 53 W/m 0,7 km/h (0 Bft)
05.03.2014 18:00 6,9 C 4,0 C 84 % 1023,3 hPa 0,0 l/m 0,00 h 0,00 h 0,0 UV-I 9 W/m 0,0 km/h (0 Bft)
05.03.2014 19:00 5,0 C 2,4 C 89 % 1024,2 hPa 0,0 l/m 0,00 h 0,00 h 0,0 UV-I 0 W/m 0,0 km/h (0 Bft)
05.03.2014 20:00 3,9 C 1,6 C 92 % 1024,7 hPa 0,0 l/m 0,00 h 0,00 h 0,0 UV-I 0 W/m 0,0 km/h (0 Bft)
05.03.2014 21:00 3,0 C 0,9 C 94 % 1025,2 hPa 0,0 l/m 0,00 h 0,00 h 0,0 UV-I 0 W/m 0,0 km/h (0 Bft)
05.03.2014 22:00 2,2 C 0,2 C 95 % 1025,7 hPa 0,0 l/m 0,00 h 0,00 h 0,0 UV-I 0 W/m 0,0 km/h (0 Bft)
05.03.2014 23:00 1,6 C -0,3 C 96 % 1026,0 hPa 0,0 l/m 0,00 h 0,00 h 0,0 UV-I 0 W/m 0,0 km/h (0 Bft)
06.03.2014 00:00 1,0 C -0,7 C 96 % 1026,5 hPa 0,0 l/m 0,00 h 0,00 h 0,0 UV-I 0 W/m 0,0 km/h (0 Bft)
06.03.2014 01:00 0,6 C -1,2 C 97 % 1027,0 hPa 0,0 l/m 0,00 h 0,00 h 0,0 UV-I 0 W/m 0,0 km/h (0 Bft)
06.03.2014 02:00 0,2 C -1,7 C 97 % 1027,4 hPa 0,0 l/m 0,00 h 0,00 h 0,0 UV-I 0 W/m 0,0 km/h (0 Bft)
06.03.2014 03:00 0,1 C -1,7 C 97 % 1027,4 hPa 0,0 l/m 0,00 h 0,00 h 0,0 UV-I 0 W/m 0,0 km/h (0 Bft)
06.03.2014 04:00 0,4 C -1,2 C 97 % 1027,5 hPa 0,0 l/m 0,00 h 0,00 h 0,0 UV-I 0 W/m 0,4 km/h (0 Bft)
06.03.2014 05:00 0,2 C -1,1 C 97 % 1027,7 hPa 0,0 l/m 0,00 h 0,00 h 0,0 UV-I 0 W/m 1,3 km/h (1 Bft)
06.03.2014 06:00 0,1 C -1,1 C 97 % 1027,9 hPa 0,0 l/m 0,00 h 0,00 h 0,0 UV-I 0 W/m 1,5 km/h (1 Bft)
06.03.2014 07:00 -0,1 C -1,3 C 98 % 1028,5 hPa 0,0 l/m 0,00 h 0,00 h 0,0 UV-I 18 W/m 0,1 km/h (0 Bft)
06.03.2014 08:00 0,7 C -0,2 C 98 % 1029,1 hPa 0,0 l/m 0,60 h 0,00 h 0,0 UV-I 112 W/m 0,2 km/h (0 Bft)
06.03.2014 09:00 3,0 C 1,9 C 97 % 1029,5 hPa 0,0 l/m 1,00 h 0,00 h 0,0 UV-I 233 W/m 2,7 km/h (1 Bft)
06.03.2014 10:00 6,2 C 4,8 C 88 % 1029,6 hPa 0,0 l/m 1,00 h 0,00 h 0,7 UV-I 356 W/m 4,4 km/h (1 Bft)
06.03.2014 11:00 8,9 C 7,4 C 80 % 1029,4 hPa 0,0 l/m 1,00 h 0,00 h 1,1 UV-I 455 W/m 10,6 km/h (2 Bft)
06.03.2014 12:00 11,2 C 9,5 C 73 % 1029,0 hPa 0,0 l/m 1,00 h 0,00 h 1,0 UV-I 501 W/m 9,3 km/h (2 Bft)
06.03.2014 13:00 12,5 C 10,6 C 66 % 1028,4 hPa 0,0 l/m 1,00 h 0,00 h 1,4 UV-I 489 W/m 11,9 km/h (2 Bft)
06.03.2014 14:00 13,2 C 11,2 C 60 % 1027,9 hPa 0,0 l/m 1,00 h 0,00 h 1,0 UV-I 434 W/m 11,7 km/h (2 Bft)
06.03.2014 15:00 13,5 C 11,6 C 57 % 1027,4 hPa 0,0 l/m 1,00 h 0,00 h 0,6 UV-I 335 W/m 10,0 km/h (2 Bft)
06.03.2014 16:00 13,0 C 10,7 C 59 % 1027,1 hPa 0,0 l/m 0,93 h 0,00 h 0,0 UV-I 195 W/m 7,9 km/h (2 Bft)
06.03.2014 17:00 12,0 C 8,9 C 63 % 1026,8 hPa 0,0 l/m 0,33 h 0,00 h 0,0 UV-I 61 W/m 1,2 km/h (1 Bft)
06.03.2014 18:00 9,6 C 5,9 C 72 % 1026,8 hPa 0,0 l/m 0,00 h 0,00 h 0,0 UV-I 9 W/m 0,0 km/h (0 Bft)
06.03.2014 19:00 7,2 C 3,9 C 79 % 1026,8 hPa 0,0 l/m 0,00 h 0,00 h 0,0 UV-I 0 W/m 0,0 km/h (0 Bft)
06.03.2014 20:00 5,8 C 2,9 C 81 % 1026,8 hPa 0,0 l/m 0,00 h 0,00 h 0,0 UV-I 0 W/m 0,9 km/h (0 Bft)
06.03.2014 21:00 7,1 C 4,2 C 74 % 1026,7 hPa 0,0 l/m 0,00 h 0,00 h 0,0 UV-I 0 W/m 4,7 km/h (1 Bft)
06.03.2014 22:00 6,0 C 3,8 C 81 % 1026,8 hPa 0,0 l/m 0,00 h 0,00 h 0,0 UV-I 0 W/m 2,1 km/h (1 Bft)
06.03.2014 23:00 5,3 C 2,9 C 84 % 1026,6 hPa 0,0 l/m 0,00 h 0,00 h 0,0 UV-I 0 W/m 1,6 km/h (1 Bft)
07.03.2014 00:00 5,0 C 2,8 C 85 % 1026,3 hPa 0,0 l/m 0,00 h 0,00 h 0,0 UV-I 0 W/m 2,7 km/h (1 Bft)
07.03.2014 01:00 4,5 C 2,5 C 85 % 1026,1 hPa 0,0 l/m 0,00 h 0,00 h 0,0 UV-I 0 W/m 5,4 km/h (1 Bft)
07.03.2014 02:00 3,8 C 2,0 C 88 % 1026,1 hPa 0,0 l/m 0,00 h 0,00 h 0,0 UV-I 0 W/m 3,6 km/h (1 Bft)
07.03.2014 03:00 3,2 C 1,4 C 89 % 1025,7 hPa 0,0 l/m 0,00 h 0,00 h 0,0 UV-I 0 W/m 1,7 km/h (1 Bft)
07.03.2014 04:00 2,8 C 1,1 C 90 % 1025,4 hPa 0,0 l/m 0,00 h 0,00 h 0,0 UV-I 0 W/m 3,2 km/h (1 Bft)
07.03.2014 05:00 2,4 C 0,9 C 91 % 1025,3 hPa 0,0 l/m 0,00 h 0,00 h 0,0 UV-I 0 W/m 3,9 km/h (1 Bft)
07.03.2014 06:00 2,3 C 0,9 C 92 % 1025,3 hPa 0,0 l/m 0,00 h 0,00 h 0,0 UV-I 5 W/m 7,8 km/h (2 Bft)
07.03.2014 07:00 2,2 C 0,9 C 92 % 1025,3 hPa 0,0 l/m 0,47 h 0,00 h 0,0 UV-I 32 W/m 5,9 km/h (2 Bft)
07.03.2014 08:00 3,0 C 2,1 C 91 % 1025,5 hPa 0,0 l/m 0,80 h 0,00 h 0,0 UV-I 136 W/m 9,8 km/h (2 Bft)
07.03.2014 09:00 5,5 C 4,1 C 87 % 1025,5 hPa 0,0 l/m 1,00 h 0,00 h 0,0 UV-I 257 W/m 9,5 km/h (2 Bft)
07.03.2014 10:00 8,8 C 7,3 C 77 % 1025,3 hPa 0,0 l/m 1,00 h 0,00 h 0,6 UV-I 358 W/m 9,9 km/h (2 Bft)
07.03.2014 11:00 11,3 C 9,8 C 68 % 1025,1 hPa 0,0 l/m 1,00 h 0,00 h 1,0 UV-I 446 W/m 10,4 km/h (2 Bft)
07.03.2014 12:00 12,6 C 11,4 C 62 % 1025,0 hPa 0,0 l/m 1,00 h 0,00 h 0,9 UV-I 445 W/m 11,4 km/h (2 Bft)
07.03.2014 13:00 14,0 C 12,7 C 58 % 1024,6 hPa 0,0 l/m 1,00 h 0,00 h 1,1 UV-I 458 W/m 10,6 km/h (2 Bft)
07.03.2014 14:00 14,0 C 13,1 C 58 % 1024,5 hPa 0,0 l/m 0,77 h 0,00 h 0,6 UV-I 314 W/m 7,1 km/h (2 Bft)
07.03.2014 15:00 13,9 C 12,5 C 57 % 1024,3 hPa 0,0 l/m 0,10 h 0,00 h 0,0 UV-I 150 W/m 3,9 km/h (1 Bft)
07.03.2014 16:00 13,1 C 11,1 C 60 % 1024,3 hPa 0,0 l/m 0,00 h 0,00 h 0,0 UV-I 58 W/m 1,8 km/h (1 Bft)
07.03.2014 17:00 12,6 C 10,0 C 61 % 1024,4 hPa 0,0 l/m 0,00 h 0,00 h 0,0 UV-I 33 W/m 1,3 km/h (1 Bft)
07.03.2014 18:00 11,2 C 8,1 C 67 % 1024,5 hPa 0,0 l/m 0,00 h 0,00 h 0,0 UV-I 10 W/m 0,4 km/h (0 Bft)
07.03.2014 19:00 10,4 C 7,8 C 71 % 1026,5 hPa 0,0 l/m 0,00 h 0,00 h 0,0 UV-I 0 W/m 0,7 km/h (0 Bft)
07.03.2014 20:00 10,5 C 7,7 C 70 % 1027,1 hPa 0,0 l/m 0,00 h 0,00 h 0,0 UV-I 0 W/m 0,0 km/h (0 Bft)
07.03.2014 21:00 8,3 C 5,5 C 78 % 1027,5 hPa 0,0 l/m 0,00 h 0,00 h 0,0 UV-I 0 W/m 0,0 km/h (0 Bft)
07.03.2014 22:00 8,5 C 6,5 C 80 % 1028,4 hPa 0,0 l/m 0,00 h 0,00 h 0,0 UV-I 0 W/m 0,0 km/h (0 Bft)
07.03.2014 23:00 9,1 C 7,0 C 82 % 1028,8 hPa 0,0 l/m 0,00 h 0,00 h 0,0 UV-I 0 W/m 0,0 km/h (0 Bft)
08.03.2014 00:00 9,1 C 6,9 C 86 % 1029,1 hPa 0,0 l/m 0,00 h 0,00 h 0,0 UV-I 0 W/m 0,0 km/h (0 Bft)
08.03.2014 01:00 8,5 C 6,3 C 88 % 1029,5 hPa 0,0 l/m 0,00 h 0,00 h 0,0 UV-I 0 W/m 0,0 km/h (0 Bft)
08.03.2014 02:00 7,0 C 4,7 C 92 % 1029,7 hPa 0,0 l/m 0,00 h 0,00 h 0,0 UV-I 0 W/m 0,0 km/h (0 Bft)
08.03.2014 03:00 6,3 C 4,4 C 94 % 1030,3 hPa 0,0 l/m 0,00 h 0,00 h 0,0 UV-I 0 W/m 0,1 km/h (0 Bft)
08.03.2014 04:00 5,1 C 2,9 C 95 % 1030,5 hPa 0,0 l/m 0,00 h 0,00 h 0,0 UV-I 0 W/m 0,0 km/h (0 Bft)
08.03.2014 05:00 3,9 C 1,9 C 96 % 1030,9 hPa 0,0 l/m 0,00 h 0,00 h 0,0 UV-I 0 W/m 0,0 km/h (0 Bft)
08.03.2014 06:00 2,8 C 1,0 C 96 % 1031,0 hPa 0,0 l/m 0,00 h 0,00 h 0,0 UV-I 0 W/m 0,0 km/h (0 Bft)
08.03.2014 07:00 2,4 C 0,8 C 97 % 1031,3 hPa 0,0 l/m 0,00 h 0,00 h 0,0 UV-I 24 W/m 0,0 km/h (0 Bft)
08.03.2014 08:00 4,8 C 2,9 C 97 % 1031,5 hPa 0,0 l/m 0,70 h 0,00 h 0,0 UV-I 130 W/m 4,2 km/h (1 Bft)
08.03.2014 09:00 9,4 C 7,5 C 90 % 1031,4 hPa 0,0 l/m 1,00 h 0,00 h 0,0 UV-I 275 W/m 17,9 km/h (3 Bft)
08.03.2014 10:00 12,0 C 10,2 C 78 % 1031,6 hPa 0,0 l/m 1,00 h 0,00 h 0,6 UV-I 382 W/m 17,1 km/h (3 Bft)
08.03.2014 11:00 13,7 C 12,0 C 71 % 1031,1 hPa 0,0 l/m 1,00 h 0,00 h 1,0 UV-I 482 W/m 25,7 km/h (4 Bft)
08.03.2014 12:00 14,9 C 13,1 C 68 % 1030,7 hPa 0,0 l/m 1,00 h 0,00 h 0,9 UV-I 525 W/m 25,3 km/h (4 Bft)
08.03.2014 13:00 16,0 C 14,1 C 64 % 1030,0 hPa 0,0 l/m 1,00 h 0,00 h 1,3 UV-I 517 W/m 23,7 km/h (4 Bft)
08.03.2014 14:00 16,9 C 14,9 C 58 % 1029,4 hPa 0,0 l/m 1,00 h 0,00 h 1,0 UV-I 467 W/m 21,2 km/h (4 Bft)
08.03.2014 15:00 17,3 C 15,1 C 56 % 1028,8 hPa 0,0 l/m 0,93 h 0,00 h 0,6 UV-I 356 W/m 20,1 km/h (4 Bft)
08.03.2014 16:00 16,3 C 13,9 C 57 % 1028,2 hPa 0,0 l/m 0,33 h 0,00 h 0,0 UV-I 153 W/m 14,7 km/h (3 Bft)
08.03.2014 17:00 15,6 C 13,1 C 59 % 1027,7 hPa 0,0 l/m 0,43 h 0,00 h 0,0 UV-I 86 W/m 17,8 km/h (3 Bft)
08.03.2014 18:00 14,2 C 11,6 C 62 % 1027,8 hPa 0,0 l/m 0,03 h 0,00 h 0,0 UV-I 10 W/m 15,9 km/h (3 Bft)
08.03.2014 19:00 13,3 C 10,7 C 61 % 1028,2 hPa 0,0 l/m 0,00 h 0,00 h 0,0 UV-I 0 W/m 19,6 km/h (3 Bft)
08.03.2014 20:00 12,3 C 9,6 C 64 % 1028,3 hPa 0,0 l/m 0,00 h 0,00 h 0,0 UV-I 0 W/m 16,5 km/h (3 Bft)
08.03.2014 21:00 10,8 C 8,0 C 69 % 1028,4 hPa 0,0 l/m 0,00 h 0,00 h 0,0 UV-I 0 W/m 5,7 km/h (1 Bft)
08.03.2014 22:00 10,1 C 7,8 C 70 % 1028,1 hPa 0,0 l/m 0,00 h 0,00 h 0,0 UV-I 0 W/m 12,1 km/h (2 Bft)
08.03.2014 23:00 9,8 C 7,7 C 71 % 1027,9 hPa 0,0 l/m 0,00 h 0,00 h 0,0 UV-I 0 W/m 16,8 km/h (3 Bft)
09.03.2014 00:00 9,8 C 7,7 C 69 % 1027,6 hPa 0,0 l/m 0,00 h 0,00 h 0,0 UV-I 0 W/m 18,6 km/h (3 Bft)
09.03.2014 01:00 9,2 C 7,0 C 70 % 1027,3 hPa 0,0 l/m 0,00 h 0,00 h 0,0 UV-I 0 W/m 12,8 km/h (3 Bft)
09.03.2014 02:00 8,7 C 6,7 C 71 % 1026,8 hPa 0,0 l/m 0,00 h 0,00 h 0,0 UV-I 0 W/m 15,5 km/h (3 Bft)
09.03.2014 03:00 8,8 C 6,7 C 71 % 1026,4 hPa 0,0 l/m 0,00 h 0,00 h 0,0 UV-I 0 W/m 18,8 km/h (3 Bft)
09.03.2014 04:00 8,8 C 6,8 C 71 % 1026,4 hPa 0,0 l/m 0,00 h 0,00 h 0,0 UV-I 0 W/m 26,6 km/h (4 Bft)
09.03.2014 05:00 8,8 C 6,8 C 71 % 1026,5 hPa 0,0 l/m 0,00 h 0,00 h 0,0 UV-I 0 W/m 27,1 km/h (4 Bft)
09.03.2014 06:00 8,4 C 6,5 C 71 % 1026,6 hPa 0,0 l/m 0,00 h 0,00 h 0,0 UV-I 0 W/m 27,4 km/h (4 Bft)
09.03.2014 07:00 8,4 C 6,6 C 69 % 1027,3 hPa 0,0 l/m 0,00 h 0,00 h 0,0 UV-I 21 W/m 29,9 km/h (5 Bft)
09.03.2014 08:00 8,9 C 7,2 C 68 % 1027,8 hPa 0,0 l/m 0,70 h 0,00 h 0,0 UV-I 140 W/m 30,6 km/h (5 Bft)
09.03.2014 09:00 10,9 C 8,8 C 63 % 1028,0 hPa 0,0 l/m 1,00 h 0,00 h 0,5 UV-I 304 W/m 28,4 km/h (4 Bft)
09.03.2014 10:00 13,6 C 11,6 C 54 % 1027,9 hPa 0,0 l/m 1,00 h 0,00 h 0,9 UV-I 434 W/m 27,5 km/h (4 Bft)
09.03.2014 11:00 15,9 C 13,8 C 48 % 1028,1 hPa 0,0 l/m 1,00 h 0,00 h 1,3 UV-I 515 W/m 24,6 km/h (4 Bft)
09.03.2014 12:00 17,9 C 15,5 C 43 % 1028,1 hPa 0,0 l/m 1,00 h 0,00 h 1,1 UV-I 554 W/m 18,8 km/h (3 Bft)
09.03.2014 13:00 19,5 C 16,5 C 41 % 1027,6 hPa 0,0 l/m 1,00 h 0,00 h 1,7 UV-I 537 W/m 12,0 km/h (2 Bft)
09.03.2014 14:00 20,4 C 17,5 C 40 % 1027,1 hPa 0,0 l/m 1,00 h 0,00 h 1,3 UV-I 482 W/m 13,0 km/h (3 Bft)
09.03.2014 15:00 20,8 C 17,8 C 39 % 1026,7 hPa 0,0 l/m 1,00 h 0,00 h 0,7 UV-I 391 W/m 13,2 km/h (3 Bft)
09.03.2014 16:00 20,4 C 17,0 C 39 % 1026,4 hPa 0,0 l/m 1,00 h 0,00 h 0,0 UV-I 239 W/m 10,6 km/h (2 Bft)
09.03.2014 17:00 19,3 C 14,4 C 39 % 1026,3 hPa 0,0 l/m 0,63 h 0,00 h 0,0 UV-I 86 W/m 4,7 km/h (1 Bft)
09.03.2014 18:00 16,7 C 10,6 C 44 % 1026,4 hPa 0,0 l/m 0,03 h 0,00 h 0,0 UV-I 12 W/m 0,2 km/h (0 Bft)
09.03.2014 19:00 14,3 C 8,8 C 49 % 1026,4 hPa 0,0 l/m 0,00 h 0,00 h 0,0 UV-I 0 W/m 1,5 km/h (1 Bft)
09.03.2014 20:00 13,9 C 9,5 C 50 % 1026,2 hPa 0,0 l/m 0,00 h 0,00 h 0,0 UV-I 0 W/m 6,4 km/h (2 Bft)
09.03.2014 21:00 12,8 C 9,4 C 56 % 1026,2 hPa 0,0 l/m 0,00 h 0,00 h 0,0 UV-I 0 W/m 12,4 km/h (3 Bft)
09.03.2014 22:00 11,9 C 8,7 C 58 % 1026,1 hPa 0,0 l/m 0,00 h 0,00 h 0,0 UV-I 0 W/m 10,5 km/h (2 Bft)
09.03.2014 23:00 10,8 C 7,7 C 61 % 1025,8 hPa 0,0 l/m 0,00 h 0,00 h 0,0 UV-I 0 W/m 7,5 km/h (2 Bft)
Min-Datum _ 06.03.14 06.03.14 09.03.14 03.03.14 - - - - - 03.03.14
_ Min-Zeit 03:16 01:54 16:08 07:42 - - - - - 12:30
Minimum _ -0,3 C -1,7 C 37 % 987,7 hPa - - - - - 0,0 km/h (0 Bft)
Max-Datum _ 09.03.14 09.03.14 05.03.14 08.03.14 03.03.14 03.03.14 03.03.14 09.03.14 04.03.14 09.03.14
_ Max-Zeit 15:10 14:32 10:16 10:18 08:58 14:38 08:44 12:52 13:10 05:42
Maximum _ 20,9 C 17,8 C 100 % 1031,8 hPa 0,2 l/m 0,03 h 0,03 h 1,8 UV-I 647 W/m 46,3 km/h
S-SO (6 Bft)
Durchschnitt _ 7,8 C 5,9 C 78 % 1017,5 hPa #0,2 l/m #46:56 h #1:08 h 0,9 UV-I 226 W/m 7,7 km/h (2 Bft)
© 2014 W. Hausmann